Time;durP1;ratioP1;P1;durP2;ratioP2;P2;SDS_P1;SDS_P2;PMS_P1;PMS_P2;Temp;Humidity;BMP_temperature;BMP_pressure;BME280_temperature;BME280_humidity;BME280_pressure;Samples;Min_cycle;Max_cycle;Signal;HPM_P1;HPM_P2
2023/04/17 00:00:36;;;;;;;22.63;12.13;;;;;;;7.88;100.00;102502.00;5073962;28;20028;-86
2023/04/17 00:03:02;;;;;;;22.20;11.93;;;;;;;7.89;100.00;102498.56;5074073;28;20089;-87
2023/04/17 00:05:30;;;;;;;24.33;13.17;;;;;;;7.87;100.00;102501.97;5073392;28;20025;-86
2023/04/17 00:07:56;;;;;;;23.75;12.88;;;;;;;7.86;100.00;102503.69;5073924;28;20024;-86
2023/04/17 00:10:21;;;;;;;23.60;12.77;;;;;;;7.88;100.00;102501.13;5074006;28;20052;-86
2023/04/17 00:12:46;;;;;;;23.60;12.97;;;;;;;7.87;100.00;102502.84;5074552;28;20025;-86
2023/04/17 00:15:12;;;;;;;23.53;13.37;;;;;;;7.87;100.00;102496.78;5074129;28;20024;-87
2023/04/17 00:17:37;;;;;;;24.77;14.10;;;;;;;7.80;100.00;102495.78;5074501;28;20074;-86
2023/04/17 00:20:09;;;;;;;25.17;14.57;;;;;;;7.77;100.00;102480.19;5074824;28;20036;-86
2023/04/17 00:22:35;;;;;;;23.88;13.32;;;;;;;7.80;100.00;102487.16;5074039;28;20033;-86
2023/04/17 00:25:01;;;;;;;21.65;11.68;;;;;;;7.79;100.00;102480.25;5074566;28;20413;-86
2023/04/17 00:27:27;;;;;;;27.43;15.70;;;;;;;7.75;100.00;102487.06;5074183;28;20056;-86
2023/04/17 00:29:52;;;;;;;26.40;14.87;;;;;;;7.69;100.00;102477.47;5073568;28;20049;-87
2023/04/17 00:32:17;;;;;;;24.30;13.83;;;;;;;7.67;100.00;102484.28;5074272;28;20468;-87
2023/04/17 00:34:42;;;;;;;25.47;15.13;;;;;;;7.58;100.00;102473.75;5073616;28;20104;-86
2023/04/17 00:37:08;;;;;;;28.90;17.43;;;;;;;7.53;100.00;102488.25;5074530;28;20469;-86
2023/04/17 00:39:33;;;;;;;29.58;17.50;;;;;;;7.49;100.00;102476.97;5073497;28;20469;-86
2023/04/17 00:41:58;;;;;;;27.57;16.00;;;;;;;7.48;100.00;102492.47;5073529;28;20066;-86
2023/04/17 00:44:24;;;;;;;25.80;15.57;;;;;;;7.45;100.00;102480.31;5082032;28;20087;-86
2023/04/17 00:46:49;;;;;;;25.27;14.13;;;;;;;7.47;100.00;102480.38;5094131;28;20046;-86
2023/04/17 00:49:15;;;;;;;26.47;14.70;;;;;;;7.49;100.00;102484.72;5093706;28;20020;-86
2023/04/17 00:51:40;;;;;;;26.55;15.35;;;;;;;7.49;100.00;102474.41;5094080;28;20043;-86
2023/04/17 00:54:06;;;;;;;27.35;15.55;;;;;;;7.49;100.00;102474.41;5093594;28;20127;-85
2023/04/17 00:56:32;;;;;;;28.30;16.30;;;;;;;7.49;100.00;102474.41;5093237;28;20376;-86
2023/04/17 00:59:00;;;;;;;25.90;15.93;;;;;;;7.52;100.00;102465.84;5094043;28;20028;-87
2023/04/17 01:01:25;;;;;;;28.15;17.05;;;;;;;7.50;100.00;102476.16;5093661;28;20024;-86
2023/04/17 01:03:52;;;;;;;28.10;16.60;;;;;;;7.51;100.00;102479.59;5093027;28;20027;-86
2023/04/17 01:06:18;;;;;;;27.60;16.42;;;;;;;7.50;100.00;102464.94;5094209;28;20028;-86
2023/04/17 01:08:43;;;;;;;28.05;16.38;;;;;;;7.50;100.00;102473.56;5093894;28;20024;-86
2023/04/17 01:11:09;;;;;;;26.17;16.10;;;;;;;7.51;100.00;102472.72;5092942;28;20557;-86
2023/04/17 01:13:46;;;;;;;27.35;16.50;;;;;;;7.49;100.00;102469.22;5093578;28;20103;-86
2023/04/17 01:16:11;;;;;;;;;;;;;;;7.53;100.00;102468.47;5093704;28;20464;-86
2023/04/17 01:18:37;;;;;;;28.83;17.80;;;;;;;7.55;100.00;102482.28;5092663;28;19919;-86
2023/04/17 01:21:02;;;;;;;28.90;16.57;;;;;;;7.53;100.00;102478.81;5093661;28;20027;-87
2023/04/17 01:23:40;;;;;;;26.23;15.37;;;;;;;7.51;100.00;102471.84;5084821;28;20016;-86
2023/04/17 01:26:05;;;;;;;24.10;13.55;;;;;;;7.54;100.00;102482.25;5072590;28;20113;-86
2023/04/17 01:28:31;;;;;;;23.10;13.03;;;;;;;7.54;100.00;102477.94;5072928;28;20480;-86
2023/04/17 01:30:56;;;;;;;22.13;12.17;;;;;;;7.58;100.00;102484.94;5072103;28;20496;-86
2023/04/17 01:33:21;;;;;;;25.67;14.60;;;;;;;7.57;100.00;102477.16;5069935;28;20037;-86
2023/04/17 01:35:47;;;;;;;24.15;13.45;;;;;;;7.50;100.00;102473.56;5073467;28;20040;-84
2023/04/17 01:38:13;;;;;;;23.02;13.18;;;;;;;7.58;100.00;102476.34;5072996;28;20121;-84
2023/04/17 01:40:38;;;;;;;25.87;14.93;;;;;;;7.55;100.00;102487.44;5073430;28;20471;-85
2023/04/17 01:43:03;;;;;;;25.67;15.37;;;;;;;7.57;100.00;102490.09;5074104;28;20032;-85
2023/04/17 01:45:28;;;;;;;25.80;14.77;;;;;;;7.53;100.00;102478.81;5072032;28;20468;-85
2023/04/17 01:47:54;;;;;;;25.53;15.23;;;;;;;7.54;100.00;102483.13;5073296;28;20025;-85
2023/04/17 01:50:19;;;;;;;25.93;14.60;;;;;;;7.57;100.00;102485.78;5072912;28;20515;-85
2023/04/17 01:52:45;;;;;;;24.37;14.33;;;;;;;7.53;100.00;102483.97;5074686;28;20029;-85
2023/04/17 01:55:10;;;;;;;25.17;14.03;;;;;;;7.55;100.00;102482.28;5093304;28;20023;-85
2023/04/17 01:57:35;;;;;;;22.70;13.43;;;;;;;7.55;100.00;102481.44;5092872;28;20464;-85
2023/04/17 02:00:01;;;;;;;24.17;13.63;;;;;;;7.56;100.00;102481.44;5092025;28;20114;-85
2023/04/17 02:02:26;;;;;;;25.57;14.60;;;;;;;7.51;100.00;102484.75;5092822;28;20126;-85
2023/04/17 02:04:51;;;;;;;27.87;17.17;;;;;;;7.48;100.00;102490.75;5093113;28;20023;-85
2023/04/17 02:07:16;;;;;;;29.03;17.70;;;;;;;7.43;100.00;102487.16;5091805;28;20604;-86
2023/04/17 02:09:42;;;;;;;27.23;16.13;;;;;;;7.42;100.00;102488.03;5092136;28;20032;-85
2023/04/17 02:12:07;;;;;;;25.83;14.77;;;;;;;7.40;100.00;102481.94;5092551;28;20135;-85
2023/04/17 02:14:35;;;;;;;25.50;15.30;;;;;;;7.40;100.00;102482.78;5092196;28;20043;-85
2023/04/17 02:17:01;;;;;;;30.10;18.17;;;;;;;7.35;100.00;102480.94;5092849;28;20024;-85
2023/04/17 02:19:26;;;;;;;27.93;16.47;;;;;;;7.38;100.00;102486.19;5092380;28;20034;-85
2023/04/17 02:21:51;;;;;;;25.67;15.13;;;;;;;7.39;100.00;102482.78;5092090;28;20103;-85
2023/04/17 02:24:17;;;;;;;25.00;13.50;;;;;;;7.40;100.00;102485.38;5077366;28;20112;-86
2023/04/17 02:26:42;;;;;;;26.80;15.47;;;;;;;7.38;100.00;102484.47;5072199;28;20029;-85
2023/04/17 02:29:07;;;;;;;27.63;16.40;;;;;;;7.35;100.00;102487.00;5075720;28;20032;-85
2023/04/17 02:31:33;;;;;;;31.33;19.47;;;;;;;7.26;100.00;102477.31;5076626;28;20078;-85
2023/04/17 02:34:01;;;;;;;27.70;16.37;;;;;;;7.24;100.00;102480.69;5076766;28;20025;-85
2023/04/17 02:36:26;;;;;;;26.10;14.80;;;;;;;7.24;100.00;102478.97;5075587;28;20093;-85
2023/04/17 02:38:52;;;;;;;29.47;17.07;;;;;;;7.25;100.00;102482.44;5076232;28;20024;-85
2023/04/17 02:41:17;;;;;;;27.23;16.10;;;;;;;7.26;100.00;102482.47;5075516;28;20027;-84
2023/04/17 02:43:42;;;;;;;27.80;15.93;;;;;;;7.22;100.00;102467.72;5076219;28;20067;-85
2023/04/17 02:46:08;;;;;;;28.10;16.77;;;;;;;7.26;100.00;102481.59;5076365;28;20027;-85
2023/04/17 02:48:33;;;;;;;26.70;14.67;;;;;;;7.30;100.00;102486.00;5075409;28;20036;-85
2023/04/17 02:50:58;;;;;;;26.50;15.00;;;;;;;7.23;100.00;102476.34;5076091;28;20055;-85
2023/04/17 02:53:23;;;;;;;25.27;14.40;;;;;;;7.24;100.00;102472.94;5076252;28;20033;-85
2023/04/17 02:55:49;;;;;;;24.20;14.13;;;;;;;7.30;100.00;102486.00;5076446;28;20052;-84
2023/04/17 02:58:14;;;;;;;25.00;13.90;;;;;;;7.32;100.00;102483.47;5076486;28;20035;-85
2023/04/17 03:00:39;;;;;;;28.27;16.50;;;;;;;7.30;100.00;102488.56;5075809;28;20036;-85
2023/04/17 03:03:05;;;;;;;28.58;16.75;;;;;;;7.30;100.00;102490.28;5075432;28;20062;-85
2023/04/17 03:05:30;;;;;;;27.40;15.80;;;;;;;7.29;100.00;102492.00;5075562;28;20357;-85
2023/04/17 03:07:59;;;;;;;29.35;17.45;;;;;;;7.27;100.00;102488.50;5075890;28;20063;-85
2023/04/17 03:10:24;;;;;;;28.20;16.58;;;;;;;7.19;100.00;102483.16;5074632;28;20118;-85
2023/04/17 03:12:49;;;;;;;31.97;18.97;;;;;;;7.19;100.00;102487.44;5075869;28;20028;-85
2023/04/17 03:15:15;;;;;;;30.60;18.30;;;;;;;7.18;100.00;102496.00;5075883;28;20013;-86
2023/04/17 03:17:40;;;;;;;30.53;18.13;;;;;;;7.22;100.00;102501.28;5074835;28;20024;-85
2023/04/17 03:20:07;;;;;;;26.83;15.50;;;;;;;7.22;100.00;102496.13;5075456;28;20072;-85
2023/04/17 03:22:32;;;;;;;27.52;16.48;;;;;;;7.23;100.00;102495.28;5075364;28;20032;-85
2023/04/17 03:24:57;;;;;;;29.07;16.90;;;;;;;7.22;100.00;102505.59;5074895;28;20341;-85
2023/04/17 03:27:23;;;;;;;26.07;14.83;;;;;;;7.22;100.00;102501.28;5075188;28;20028;-85
2023/04/17 03:29:50;;;;;;;31.83;18.50;;;;;;;7.20;100.00;102502.09;5075573;28;20027;-85
2023/04/17 03:32:16;;;;;;;27.65;16.33;;;;;;;7.16;100.00;102488.25;5074776;28;20435;-85
2023/04/17 03:34:41;;;;;;;30.80;16.97;;;;;;;7.17;100.00;102495.16;5075160;28;20075;-85
2023/04/17 03:37:07;;;;;;;28.90;16.10;;;;;;;7.17;100.00;102496.84;5075573;28;20074;-86
2023/04/17 03:39:32;;;;;;;28.73;16.50;;;;;;;7.15;100.00;102491.66;5074134;28;20544;-85
2023/04/17 03:41:57;;;;;;;29.58;17.15;;;;;;;7.10;100.00;102482.91;5075383;28;20357;-85
2023/04/17 03:44:22;;;;;;;26.80;15.17;;;;;;;7.16;100.00;102493.41;5075168;28;20017;-84
2023/04/17 03:46:47;;;;;;;29.53;16.57;;;;;;;7.11;100.00;102489.81;5074480;28;20021;-86
2023/04/17 03:49:13;;;;;;;29.47;16.53;;;;;;;7.13;100.00;102488.16;5075268;28;20025;-86
2023/04/17 03:51:38;;;;;;;27.23;15.57;;;;;;;7.15;100.00;102488.22;5074253;28;20025;-85
2023/04/17 03:54:04;;;;;;;25.90;13.77;;;;;;;7.17;100.00;102492.56;5074436;28;20112;-86
2023/04/17 03:56:29;;;;;;;22.17;11.97;;;;;;;7.20;100.00;102492.66;5074711;28;20473;-85
2023/04/17 03:59:00;;;;;;;22.83;11.53;;;;;;;7.21;100.00;102494.38;5074055;28;20027;-85
2023/04/17 04:01:28;;;;;;;23.67;12.98;;;;;;;7.23;100.00;102492.72;5074683;28;20476;-85
2023/04/17 04:03:54;;;;;;;25.08;13.38;;;;;;;7.22;100.00;102492.69;5075171;28;20042;-85
2023/04/17 04:06:21;;;;;;;28.70;16.60;;;;;;;7.21;100.00;102496.09;5082399;28;20028;-86
2023/04/17 04:08:47;;;;;;;28.60;16.27;;;;;;;7.18;100.00;102488.25;5094966;28;20028;-85
2023/04/17 04:11:15;;;;;;;30.90;17.50;;;;;;;7.12;100.00;102499.31;5094052;28;20052;-85
2023/04/17 04:13:41;;;;;;;29.77;17.05;;;;;;;7.09;100.00;102491.50;5093598;28;20270;-85
2023/04/17 04:16:06;;;;;;;29.40;16.03;;;;;;;7.10;100.00;102488.06;5094924;28;20387;-85
2023/04/17 04:18:32;;;;;;;26.03;14.37;;;;;;;7.12;100.00;102491.56;5094562;28;20024;-85
2023/04/17 04:20:57;;;;;;;27.60;15.33;;;;;;;7.09;100.00;102488.94;5094258;28;20122;-85
2023/04/17 04:23:23;;;;;;;31.20;16.93;;;;;;;7.05;100.00;102498.28;5094666;28;20559;-84
2023/04/17 04:25:51;;;;;;;30.45;17.25;;;;;;;7.05;100.00;102503.44;5095049;28;20028;-86
2023/04/17 04:28:22;;;;;;;27.80;15.68;;;;;;;7.05;100.00;102502.56;5094503;28;20460;-85
2023/04/17 04:30:52;;;;;;;28.08;16.55;;;;;;;7.01;100.00;102495.56;5094737;28;20032;-85
2023/04/17 04:33:34;;;;;;;25.73;14.40;;;;;;;6.98;100.00;102485.19;5088263;28;20040;-85
2023/04/17 04:36:05;;;;;;;26.85;14.30;;;;;;;7.00;100.00;102493.81;5094032;28;20024;-85
2023/04/17 04:38:31;;;;;;;27.35;15.07;;;;;;;7.03;100.00;102499.06;5094123;28;20024;-85
2023/04/17 04:41:00;;;;;;;25.43;14.37;;;;;;;7.04;100.00;102506.84;5093447;28;20024;-85
2023/04/17 04:43:28;;;;;;;26.45;14.23;;;;;;;7.03;100.00;102501.66;5094050;28;20020;-86
2023/04/17 04:45:54;;;;;;;22.80;12.00;;;;;;;7.08;100.00;102513.00;5094299;28;20461;-85
2023/04/17 04:48:20;;;;;;;31.33;17.43;;;;;;;6.96;100.00;102498.03;5093037;28;20034;-85
2023/04/17 04:50:46;;;;;;;26.38;15.20;;;;;;;7.05;100.00;102512.91;5093539;28;20463;-84
2023/04/17 04:53:11;;;;;;;33.30;18.80;;;;;;;6.99;100.00;102513.63;5093889;28;20024;-83
2023/04/17 04:55:36;;;;;;;30.27;17.07;;;;;;;6.97;100.00;102510.13;5090970;28;20059;-86
2023/04/17 04:58:02;;;;;;;31.30;17.57;;;;;;;6.96;100.00;102508.38;5074362;28;20029;-86
2023/04/17 05:00:30;;;;;;;31.60;18.37;;;;;;;7.00;100.00;102517.06;5088877;28;20067;-87
2023/04/17 05:02:56;;;;;;;28.42;16.55;;;;;;;6.98;100.00;102519.59;5093372;28;20029;-87
2023/04/17 05:05:24;;;;;;;27.23;15.33;;;;;;;6.94;100.00;102510.91;5093573;28;20074;-87
2023/04/17 05:07:49;;;;;;;32.38;18.23;;;;;;;6.90;100.00;102508.22;5073838;28;20028;-87
2023/04/17 05:10:15;;;;;;;28.63;16.47;;;;;;;6.96;100.00;102526.44;5072735;28;20060;-88
2023/04/17 05:12:41;;;;;;;27.37;15.40;;;;;;;6.96;100.00;102518.69;5073214;28;20036;-87
2023/04/17 05:15:07;;;;;;;29.73;15.93;;;;;;;7.02;100.00;102525.72;5073682;28;20052;-88
2023/04/17 05:17:32;;;;;;;28.13;16.33;;;;;;;7.03;100.00;102524.88;5072768;28;20060;-88
2023/04/17 05:19:57;;;;;;;29.23;15.30;;;;;;;7.03;100.00;102533.53;5073589;28;20024;-88
2023/04/17 05:22:23;;;;;;;28.20;15.90;;;;;;;7.07;100.00;102537.91;5093245;28;20028;-88
2023/04/17 05:24:48;;;;;;;25.70;14.73;;;;;;;7.09;100.00;102535.41;5092780;28;20106;-86
2023/04/17 05:27:13;;;;;;;24.43;12.30;;;;;;;7.13;100.00;102536.34;5093079;28;20028;-86
2023/04/17 05:29:38;;;;;;;24.27;13.13;;;;;;;7.15;100.00;102538.13;5093227;28;20050;-85
2023/04/17 05:32:06;;;;;;;25.95;14.25;;;;;;;7.17;100.00;102546.78;5092625;28;20035;-85
2023/04/17 05:34:32;;;;;;;30.35;17.42;;;;;;;7.14;100.00;102535.53;5092684;28;20081;-85
2023/04/17 05:36:57;;;;;;;27.53;15.27;;;;;;;7.14;100.00;102544.13;5093529;28;20024;-86
2023/04/17 05:39:22;;;;;;;27.67;15.50;;;;;;;7.14;100.00;102544.13;5092370;28;20020;-86
2023/04/17 05:41:47;;;;;;;30.80;17.90;;;;;;;7.10;100.00;102540.59;5093950;28;20020;-88
2023/04/17 05:44:13;;;;;;;30.23;17.03;;;;;;;7.06;100.00;102535.31;5092920;28;20020;-89
2023/04/17 05:46:38;;;;;;;31.70;18.13;;;;;;;7.08;100.00;102538.81;5093269;28;20277;-88
2023/04/17 05:49:03;;;;;;;31.27;17.57;;;;;;;7.07;100.00;102548.25;5092825;28;20192;-88
2023/04/17 05:51:29;;;;;;;29.03;16.93;;;;;;;7.07;100.00;102547.38;5092130;28;20027;-88
2023/04/17 05:53:57;;;;;;;33.00;19.50;;;;;;;7.05;100.00;102549.91;5093174;28;20028;-84
2023/04/17 05:56:22;;;;;;;31.02;18.42;;;;;;;7.02;100.00;102536.06;5092430;28;20031;-88
2023/04/17 05:58:48;;;;;;;36.43;21.23;;;;;;;7.04;100.00;102552.47;5092498;28;20020;-88
2023/04/17 06:01:16;;;;;;;35.50;20.90;;;;;;;7.04;100.00;102548.16;5083614;28;20025;-88
2023/04/17 06:03:41;;;;;;;34.67;20.75;;;;;;;7.02;100.00;102547.28;5072673;28;20048;-89
2023/04/17 06:06:07;;;;;;;39.00;23.43;;;;;;;6.96;100.00;102552.25;5072504;28;20436;-87
2023/04/17 06:08:32;;;;;;;37.60;22.52;;;;;;;6.95;100.00;102550.50;5072566;28;20029;-86
2023/04/17 06:11:00;;;;;;;32.87;19.50;;;;;;;6.95;100.00;102545.34;5072562;28;20040;-86
2023/04/17 06:13:26;;;;;;;36.03;21.17;;;;;;;6.95;100.00;102553.97;5071671;28;20070;-88
2023/04/17 06:15:51;;;;;;;38.77;23.03;;;;;;;6.96;100.00;102560.00;5072613;28;20024;-86
2023/04/17 06:18:16;;;;;;;34.00;20.48;;;;;;;7.01;100.00;102570.44;5072523;28;20035;-86
2023/04/17 06:20:45;;;;;;;36.80;21.87;;;;;;;7.02;100.00;102561.88;5071485;28;20131;-86
2023/04/17 06:23:11;;;;;;;29.27;17.25;;;;;;;7.05;100.00;102569.69;5072653;28;20029;-86
2023/04/17 06:25:36;;;;;;;36.07;21.33;;;;;;;7.05;100.00;102564.53;5072217;28;20066;-86
2023/04/17 06:28:01;;;;;;;36.93;22.30;;;;;;;7.04;100.00;102566.22;5071628;28;20377;-86
2023/04/17 06:30:27;;;;;;;39.00;23.47;;;;;;;7.03;100.00;102572.25;5072533;28;20503;-87
2023/04/17 06:32:53;;;;;;;38.00;22.63;;;;;;;7.03;100.00;102576.53;5072449;28;20020;-87
2023/04/17 06:35:18;;;;;;;33.95;19.70;;;;;;;7.07;100.00;102576.66;5072210;28;20027;-87
2023/04/17 06:37:43;;;;;;;30.40;17.70;;;;;;;7.08;100.00;102574.97;5072352;28;20021;-87
2023/04/17 06:40:11;;;;;;;33.33;19.37;;;;;;;7.11;100.00;102578.50;5072303;28;20119;-87
2023/04/17 06:42:36;;;;;;;34.00;20.42;;;;;;;7.10;100.00;102575.84;5071503;28;20020;-87
2023/04/17 06:45:01;;;;;;;36.73;21.10;;;;;;;7.12;100.00;102576.78;5072323;28;20024;-86
2023/04/17 06:47:27;;;;;;;35.73;21.10;;;;;;;7.07;100.00;102576.66;5071626;28;20025;-87
2023/04/17 06:49:52;;;;;;;35.97;20.60;;;;;;;7.13;100.00;102585.41;5071987;28;20044;-75
2023/04/17 06:52:20;;;;;;;36.60;21.60;;;;;;;7.10;100.00;102581.91;5072256;28;20031;-86
2023/04/17 06:54:46;;;;;;;31.90;18.42;;;;;;;7.15;100.00;102576.84;5071475;28;20035;-86
2023/04/17 06:57:11;;;;;;;33.87;20.37;;;;;;;7.22;100.00;102588.22;5071881;28;20157;-86
2023/04/17 06:59:39;;;;;;;37.25;22.35;;;;;;;7.20;100.00;102595.06;5071855;28;20131;-86
2023/04/17 07:02:04;;;;;;;36.05;21.90;;;;;;;7.21;100.00;102589.91;5071539;28;20036;-85
2023/04/17 07:04:30;;;;;;;36.40;20.97;;;;;;;7.24;100.00;102595.19;5072572;28;20024;-86
2023/04/17 07:06:55;;;;;;;37.10;22.60;;;;;;;7.23;100.00;102601.19;5072720;28;20479;-86
2023/04/17 07:09:21;;;;;;;34.33;19.50;;;;;;;7.24;100.00;102597.75;5071177;28;20120;-86
2023/04/17 07:11:46;;;;;;;35.83;22.58;;;;;;;7.24;100.00;102595.19;5071932;28;20032;-86
2023/04/17 07:14:11;;;;;;;37.73;23.07;;;;;;;7.22;100.00;102604.59;5074465;28;20071;-86
2023/04/17 07:16:37;;;;;;;34.67;21.03;;;;;;;7.27;100.00;102602.13;5074913;28;20027;-86
2023/04/17 07:19:04;;;;;;;35.40;21.17;;;;;;;7.32;100.00;102607.44;5075366;28;20047;-87
2023/04/17 07:21:30;;;;;;;35.47;21.58;;;;;;;7.34;100.00;102614.38;5076335;28;20483;-87
2023/04/17 07:23:55;;;;;;;34.92;21.13;;;;;;;7.38;100.00;102617.91;5074863;28;20044;-87
2023/04/17 07:26:21;;;;;;;37.03;22.40;;;;;;;7.43;100.00;102624.06;5075351;28;20021;-86
2023/04/17 07:28:47;;;;;;;36.70;22.63;;;;;;;7.44;100.00;102620.66;5075465;28;20025;-86
2023/04/17 07:31:12;;;;;;;35.67;22.33;;;;;;;7.48;100.00;102621.63;5074342;28;20020;-86
2023/04/17 07:33:37;;;;;;;35.17;21.15;;;;;;;7.51;100.00;102626.84;5075049;28;20373;-87
2023/04/17 07:36:04;;;;;;;36.67;23.17;;;;;;;7.49;100.00;102621.66;5075456;28;20017;-87
2023/04/17 07:38:31;;;;;;;33.83;20.48;;;;;;;7.52;100.00;102621.75;5074370;28;20031;-86
2023/04/17 07:40:56;;;;;;;;;;;;;;;7.53;100.00;102627.78;5075554;28;20024;-86
2023/04/17 07:43:21;;;;;;;37.67;23.47;;;;;;;7.48;100.00;102619.06;5074911;28;19920;-87
2023/04/17 07:45:47;;;;;;;38.97;24.13;;;;;;;7.52;100.00;102621.75;5074726;28;20025;-86
2023/04/17 07:48:13;;;;;;;36.33;22.20;;;;;;;7.57;100.00;102629.63;5075458;28;20474;-87
2023/04/17 07:50:38;;;;;;;35.70;21.13;;;;;;;7.66;100.00;102635.03;5075265;28;20139;-87
2023/04/17 07:53:03;;;;;;;36.75;22.42;;;;;;;7.70;100.00;102638.56;5074932;28;20030;-87
2023/04/17 07:55:29;;;;;;;35.43;22.20;;;;;;;7.72;100.00;102631.72;5074826;28;20141;-86
2023/04/17 07:57:54;;;;;;;36.78;23.38;;;;;;;7.65;100.00;102640.16;5074372;28;20025;-87
2023/04/17 08:00:20;;;;;;;36.30;22.20;;;;;;;7.67;100.00;102634.19;5074646;28;20098;-86
2023/04/17 08:02:45;;;;;;;37.13;22.55;;;;;;;7.71;100.00;102633.41;5074892;28;20139;-87
2023/04/17 08:05:11;;;;;;;36.83;23.20;;;;;;;7.70;100.00;102634.28;5074249;28;20024;-86
2023/04/17 08:07:36;;;;;;;36.53;22.70;;;;;;;7.77;100.00;102639.59;5074497;28;20016;-86
2023/04/17 08:10:03;;;;;;;32.22;19.98;;;;;;;7.87;100.00;102633.81;5074654;28;20373;-86
2023/04/17 08:12:28;;;;;;;28.08;17.55;;;;;;;7.88;100.00;102628.66;5073717;28;20066;-87
2023/04/17 08:14:54;;;;;;;31.57;19.10;;;;;;;7.98;100.00;102637.53;5074319;28;20036;-87
2023/04/17 08:17:22;;;;;;;31.83;19.50;;;;;;;8.07;100.00;102636.88;5074855;28;20033;-86
2023/04/17 08:19:49;;;;;;;31.15;18.75;;;;;;;8.18;100.00;102637.13;5073549;28;20491;-86
2023/04/17 08:22:15;;;;;;;27.55;16.67;;;;;;;8.35;100.00;102637.50;5075427;28;20028;-86
2023/04/17 08:24:41;;;;;;;33.40;20.17;;;;;;;8.54;100.00;102636.25;5073482;28;20115;-86
2023/04/17 08:27:06;;;;;;;33.43;20.67;;;;;;;8.65;99.76;102633.91;5073654;28;20106;-87
2023/04/17 08:29:32;;;;;;;28.60;17.00;;;;;;;8.77;100.00;102647.13;5073988;28;20025;-87
2023/04/17 08:31:57;;;;;;;31.07;19.20;;;;;;;8.84;97.56;102636.88;5074093;28;20020;-87
2023/04/17 08:34:22;;;;;;;31.50;19.63;;;;;;;8.92;98.14;102637.91;5073396;28;20025;-87
2023/04/17 08:36:47;;;;;;;33.73;21.20;;;;;;;9.03;96.97;102643.31;5074205;28;20024;-87
2023/04/17 08:39:15;;;;;;;34.20;21.10;;;;;;;9.07;94.73;102637.34;5073840;28;20029;-87
2023/04/17 08:41:48;;;;;;;31.70;19.83;;;;;;;9.12;96.79;102641.75;5073242;28;20388;-87
2023/04/17 08:44:19;;;;;;;30.92;19.00;;;;;;;9.14;96.59;102638.31;5074220;28;20021;-87
2023/04/17 08:46:45;;;;;;;28.67;17.42;;;;;;;9.18;96.10;102641.00;5074115;28;20029;-87
2023/04/17 08:49:10;;;;;;;29.08;17.77;;;;;;;9.19;95.57;102639.31;5072487;28;20041;-87
2023/04/17 08:51:36;;;;;;;31.23;19.53;;;;;;;9.14;94.79;102634.03;5074900;28;20396;-86
2023/04/17 08:54:04;;;;;;;31.77;19.77;;;;;;;9.15;93.80;102640.97;5073115;28;20099;-87
2023/04/17 08:56:29;;;;;;;30.83;18.67;;;;;;;9.15;95.39;102642.66;5073656;28;20031;-86
2023/04/17 08:58:55;;;;;;;31.50;19.03;;;;;;;9.20;95.10;102639.31;5073314;28;20029;-86
2023/04/17 09:01:23;;;;;;;30.63;19.10;;;;;;;9.22;94.73;102645.41;5072918;28;20029;-86
2023/04/17 09:03:50;;;;;;;32.90;21.23;;;;;;;9.14;93.32;102647.00;5073366;28;20028;-86
2023/04/17 09:06:16;;;;;;;30.27;18.60;;;;;;;9.15;94.74;102645.25;5073468;28;20051;-86
2023/04/17 09:08:57;;;;;;;28.37;17.97;;;;;;;9.13;94.18;102647.84;5072748;28;20488;-86
2023/04/17 09:11:22;;;;;;;33.30;21.05;;;;;;;9.14;93.75;102639.22;5073210;28;20119;-86
2023/04/17 09:13:48;;;;;;;29.80;19.00;;;;;;;9.21;94.06;102642.81;5073755;28;20104;-86
2023/04/17 09:16:18;;;;;;;27.30;16.47;;;;;;;9.32;95.45;102640.41;5072693;28;20016;-87
2023/04/17 09:18:45;;;;;;;28.27;17.17;;;;;;;9.47;94.35;102645.88;5073412;28;20028;-87
2023/04/17 09:21:11;;;;;;;27.20;15.90;;;;;;;9.55;93.95;102652.06;5073199;28;20044;-87
2023/04/17 09:23:55;;;;;;;28.77;16.73;;;;;;;9.62;93.34;102653.06;5072341;28;20419;-87
2023/04/17 09:26:25;;;;;;;31.85;19.60;;;;;;;9.65;91.64;102653.13;5082339;28;20027;-86
2023/04/17 09:29:10;;;;;;;31.52;19.17;;;;;;;9.80;93.44;102646.44;5093726;28;20020;-90
2023/04/17 09:31:39;;;;;;;28.20;17.55;;;;;;;9.94;93.26;102646.69;5093456;28;20032;-87
2023/04/17 09:34:12;;;;;;;32.53;20.73;;;;;;;10.08;90.02;102642.56;5093433;28;20368;-87
2023/04/17 09:36:42;;;;;;;28.25;17.70;;;;;;;10.22;92.39;102637.63;5083529;28;20044;-86
2023/04/17 09:39:23;;;;;;;31.70;20.33;;;;;;;10.34;88.48;102642.09;5070015;28;20024;-85
2023/04/17 09:41:49;;;;;;;31.20;20.35;;;;;;;10.36;87.65;102648.19;5080704;28;20472;-84
2023/04/17 09:44:25;;;;;;;31.05;20.67;;;;;;;10.38;88.93;102649.13;5092211;28;20048;-85
2023/04/17 09:46:52;;;;;;;28.77;18.42;;;;;;;10.39;89.14;102645.69;5092328;28;20020;-85
2023/04/17 09:49:41;;;;;;;31.70;20.48;;;;;;;10.50;88.28;102638.91;5093086;28;20038;-85
2023/04/17 09:52:06;;;;;;;26.63;16.40;;;;;;;10.64;89.49;102644.28;5074723;28;20067;-85
2023/04/17 09:54:38;;;;;;;29.83;19.40;;;;;;;10.85;87.04;102650.59;5072591;28;20021;-85
2023/04/17 09:57:07;;;;;;;27.98;17.85;;;;;;;11.11;87.25;102634.47;5071876;28;20051;-85
2023/04/17 09:59:33;;;;;;;27.85;17.38;;;;;;;11.47;84.17;102648.72;5077205;22;20053;-85
2023/04/17 10:02:03;;;;;;;30.30;20.08;;;;;;;11.54;83.54;102642.69;5072702;28;20369;-85
2023/04/17 10:04:29;;;;;;;27.30;17.60;;;;;;;11.64;84.79;102646.28;5071806;28;20021;-85
2023/04/17 10:06:56;;;;;;;26.50;16.27;;;;;;;11.55;85.07;102639.25;5072626;28;20024;-85
2023/04/17 10:09:21;;;;;;;31.02;19.27;;;;;;;11.67;79.48;102638.47;5072315;28;20498;-84
2023/04/17 10:11:47;;;;;;;32.97;21.73;;;;;;;11.53;75.99;102645.31;5056506;28;20025;-85
2023/04/17 10:14:26;;;;;;;33.13;22.20;;;;;;;11.35;75.69;102639.03;5052298;28;20029;-84
2023/04/17 10:16:53;;;;;;;32.75;21.25;;;;;;;11.31;77.45;102634.69;5052861;28;20096;-85
2023/04/17 10:19:30;;;;;;;29.80;19.65;;;;;;;11.57;79.37;102631.44;5051856;28;20036;-85
2023/04/17 10:22:31;;;;;;;33.35;22.15;;;;;;;11.79;75.99;102632.53;5053552;28;20033;-85
2023/04/17 10:25:14;;;;;;;31.23;20.45;;;;;;;11.97;76.43;102636.13;4971763;28;20166;-86
2023/04/17 10:27:39;;;;;;;30.75;20.55;;;;;;;12.02;75.11;102637.06;5044274;28;20037;-85
2023/04/17 10:30:15;;;;;;;28.40;18.93;;;;;;;12.14;76.22;102631.97;5052256;28;20436;-86
2023/04/17 10:32:45;;;;;;;29.35;18.52;;;;;;;12.36;76.07;102632.09;5051160;28;20025;-85
2023/04/17 10:35:34;;;;;;;29.30;19.10;;;;;;;12.60;74.22;102627.88;5052299;28;20025;-86
2023/04/17 10:38:05;;;;;;;29.02;18.48;;;;;;;12.72;70.40;102632.25;5052136;28;20044;-86
2023/04/17 10:40:33;;;;;;;29.17;18.73;;;;;;;12.60;69.58;102630.50;5051201;28;20032;-86
2023/04/17 10:43:24;;;;;;;29.58;18.83;;;;;;;12.25;69.64;102632.00;5052544;28;20074;-86
2023/04/17 10:45:53;;;;;;;29.90;19.42;;;;;;;11.96;68.78;102637.88;5052236;28;20025;-86
2023/04/17 10:48:28;;;;;;;30.88;19.80;;;;;;;11.81;72.18;102628.22;5052803;28;20025;-86
2023/04/17 10:50:55;;;;;;;29.45;18.52;;;;;;;11.94;72.35;102629.16;5057315;28;20484;-85
2023/04/17 10:53:59;;;;;;;27.08;16.95;;;;;;;12.27;70.83;102629.44;5055992;28;20025;-85
2023/04/17 10:56:34;;;;;;;31.15;20.90;;;;;;;12.25;69.95;102623.34;4974997;28;20380;-85
2023/04/17 10:59:04;;;;;;;30.48;19.27;;;;;;;12.50;72.01;102620.00;5045728;28;20497;-85
2023/04/17 11:01:37;;;;;;;30.92;19.60;;;;;;;12.71;69.71;102601.88;5055098;28;20060;-86
2023/04/17 11:04:06;;;;;;;29.05;19.10;;;;;;;12.51;67.42;102610.47;5047578;28;20037;-85
2023/04/17 11:06:36;;;;;;;28.20;17.75;;;;;;;12.61;69.81;102619.22;5055823;28;20052;-86
2023/04/17 11:09:05;;;;;;;28.13;17.35;;;;;;;12.67;68.31;102611.41;5054883;28;20441;-86